Time,TemperatureF,DewpointF,PressureIn,WindDirection,WindDirectionDegrees,WindSpeedMPH,WindSpeedGustMPH,Humidity,HourlyPrecipIn,Conditions,Clouds,dailyrainin,SoftwareType,DateUTC
2013-10-17 00:08:00,57.3,35.0,30.13,SE,136,0.0,2.0,44,0.00,,,0.00,weatherlink.com 1.10,2013-10-17 07:08:00,
2013-10-17 00:23:00,56.6,35.0,30.13,West,269,0.0,0.0,45,0.00,,,0.00,weatherlink.com 1.10,2013-10-17 07:23:00,
2013-10-17 00:38:00,56.5,35.0,30.13,ESE,105,0.0,1.0,45,0.00,,,0.00,weatherlink.com 1.10,2013-10-17 07:38:00,
2013-10-17 00:53:00,56.1,35.0,30.13,SE,124,0.0,1.0,45,0.00,,,0.00,weatherlink.com 1.10,2013-10-17 07:53:00,
2013-10-17 01:23:00,55.5,35.0,30.12,SSW,195,0.0,1.0,46,0.00,,,0.00,weatherlink.com 1.10,2013-10-17 08:23:00,
2013-10-17 01:38:00,55.2,35.0,30.12,East,100,0.0,1.0,46,0.00,,,0.00,weatherlink.com 1.10,2013-10-17 08:38:00,
2013-10-17 01:53:00,54.9,35.0,30.12,West,263,0.0,1.0,47,0.00,,,0.00,weatherlink.com 1.10,2013-10-17 08:53:00,
2013-10-17 02:08:00,54.9,34.0,30.12,East,96,0.0,1.0,46,0.00,,,0.00,weatherlink.com 1.10,2013-10-17 09:08:00,
2013-10-17 02:23:00,54.4,34.0,30.12,SW,228,0.0,0.0,47,0.00,,,0.00,weatherlink.com 1.10,2013-10-17 09:23:00,
2013-10-17 02:38:00,54.4,34.0,30.12,ESE,115,0.0,2.0,47,0.00,,,0.00,weatherlink.com 1.10,2013-10-17 09:38:00,
2013-10-17 02:53:00,54.6,35.0,30.12,ESE,123,0.0,2.0,47,0.00,,,0.00,weatherlink.com 1.10,2013-10-17 09:53:00,
2013-10-17 03:08:00,54.2,34.0,30.12,NW,314,0.0,1.0,47,0.00,,,0.00,weatherlink.com 1.10,2013-10-17 10:08:00,
2013-10-17 03:23:00,53.9,34.0,30.12,NW,314,0.0,0.0,48,0.00,,,0.00,weatherlink.com 1.10,2013-10-17 10:23:00,
2013-10-17 03:38:00,53.1,34.0,30.11,NW,304,0.0,0.0,49,0.00,,,0.00,weatherlink.com 1.10,2013-10-17 10:38:00,
2013-10-17 03:53:00,52.4,34.0,30.11,West,276,0.0,0.0,50,0.00,,,0.00,weatherlink.com 1.10,2013-10-17 10:53:00,
2013-10-17 04:08:00,52.2,34.0,30.11,West,276,0.0,0.0,51,0.00,,,0.00,weatherlink.com 1.10,2013-10-17 11:08:00,
2013-10-17 04:23:00,52.9,34.0,30.11,West,278,0.0,0.0,49,0.00,,,0.00,weatherlink.com 1.10,2013-10-17 11:23:00,
2013-10-17 04:38:00,52.2,34.0,30.11,West,278,0.0,0.0,50,0.00,,,0.00,weatherlink.com 1.10,2013-10-17 11:38:00,
2013-10-17 04:53:00,51.7,34.0,30.11,West,278,0.0,0.0,51,0.00,,,0.00,weatherlink.com 1.10,2013-10-17 11:53:00,
2013-10-17 05:08:00,52.6,34.0,30.11,West,278,0.0,0.0,49,0.00,,,0.00,weatherlink.com 1.10,2013-10-17 12:08:00,
2013-10-17 05:23:00,52.4,34.0,30.11,West,278,0.0,0.0,49,0.00,,,0.00,weatherlink.com 1.10,2013-10-17 12:23:00,
2013-10-17 05:38:00,52.2,33.0,30.11,NW,326,0.0,0.0,49,0.00,,,0.00,weatherlink.com 1.10,2013-10-17 12:38:00,
2013-10-17 05:53:00,51.4,34.0,30.11,NW,326,0.0,0.0,51,0.00,,,0.00,weatherlink.com 1.10,2013-10-17 12:53:00,
2013-10-17 06:08:00,51.5,33.0,30.11,NW,321,0.0,0.0,50,0.00,,,0.00,weatherlink.com 1.10,2013-10-17 13:08:00,
2013-10-17 06:23:00,51.3,33.0,30.11,NW,322,0.0,0.0,50,0.00,,,0.00,weatherlink.com 1.10,2013-10-17 13:23:00,
2013-10-17 06:38:00,51.4,34.0,30.11,NW,321,0.0,0.0,51,0.00,,,0.00,weatherlink.com 1.10,2013-10-17 13:38:00,
2013-10-17 06:53:00,51.3,33.0,30.11,NW,304,0.0,0.0,50,0.00,,,0.00,weatherlink.com 1.10,2013-10-17 13:53:00,
2013-10-17 07:08:00,51.5,33.0,30.12,ESE,108,0.0,0.0,49,0.00,,,0.00,weatherlink.com 1.10,2013-10-17 14:08:00,
2013-10-17 07:23:00,52.0,33.0,30.12,South,177,0.0,2.0,48,0.00,,,0.00,weatherlink.com 1.10,2013-10-17 14:23:00,
2013-10-17 07:38:00,52.1,33.0,30.12,ESE,108,0.0,1.0,48,0.00,,,0.00,weatherlink.com 1.10,2013-10-17 14:38:00,
2013-10-17 07:53:00,52.7,33.0,30.12,WSW,239,0.0,0.0,47,0.00,,,0.00,weatherlink.com 1.10,2013-10-17 14:53:00,
2013-10-17 08:08:00,53.0,34.0,30.12,ESE,103,0.0,0.0,49,0.00,,,0.00,weatherlink.com 1.10,2013-10-17 15:08:00,
2013-10-17 08:23:00,53.2,34.0,30.12,SE,131,0.0,2.0,49,0.00,,,0.00,weatherlink.com 1.10,2013-10-17 15:23:00,
2013-10-17 08:38:00,53.4,33.0,30.13,East,96,0.0,1.0,47,0.00,,,0.00,weatherlink.com 1.10,2013-10-17 15:38:00,
2013-10-17 08:53:00,54.6,33.0,30.13,SSE,155,0.0,0.0,45,0.00,,,0.00,weatherlink.com 1.10,2013-10-17 15:53:00,
2013-10-17 09:08:00,55.7,35.0,30.13,SSE,155,0.0,0.0,46,0.00,,,0.00,weatherlink.com 1.10,2013-10-17 16:08:00,
2013-10-17 09:23:00,56.6,34.0,30.14,SE,138,0.0,1.0,43,0.00,,,0.00,weatherlink.com 1.10,2013-10-17 16:23:00,
2013-10-17 09:38:00,57.9,35.0,30.14,SSE,159,0.0,1.0,43,0.00,,,0.00,weatherlink.com 1.10,2013-10-17 16:38:00,
2013-10-17 09:54:00,61.9,35.0,30.14,SE,146,0.0,1.0,37,0.00,,,0.00,weatherlink.com 1.10,2013-10-17 16:54:00,
2013-10-17 10:09:00,65.5,36.0,30.14,ESE,111,0.0,1.0,34,0.00,,,0.00,weatherlink.com 1.10,2013-10-17 17:09:00,
2013-10-17 10:24:00,68.2,37.0,30.14,SSE,148,0.0,1.0,32,0.00,,,0.00,weatherlink.com 1.10,2013-10-17 17:24:00,
2013-10-17 10:39:00,69.9,35.0,30.13,SSW,211,0.0,0.0,28,0.00,,,0.00,weatherlink.com 1.10,2013-10-17 17:39:00,
2013-10-17 10:54:00,71.9,40.0,30.13,SSW,210,0.0,0.0,31,0.00,,,0.00,weatherlink.com 1.10,2013-10-17 17:54:00,
2013-10-17 11:09:00,73.7,39.0,30.12,North,1,0.0,0.0,28,0.00,,,0.00,weatherlink.com 1.10,2013-10-17 18:09:00,
2013-10-17 11:24:00,74.8,36.0,30.12,SW,224,0.0,2.0,24,0.00,,,0.00,weatherlink.com 1.10,2013-10-17 18:24:00,
2013-10-17 11:39:00,75.7,37.0,30.12,ESE,110,0.0,1.0,25,0.00,,,0.00,weatherlink.com 1.10,2013-10-17 18:39:00,
2013-10-17 11:54:00,76.3,38.0,30.11,West,276,0.0,2.0,25,0.00,,,0.00,weatherlink.com 1.10,2013-10-17 18:54:00,
2013-10-17 12:09:00,76.4,38.0,30.11,SW,226,0.0,3.0,25,0.00,,,0.00,weatherlink.com 1.10,2013-10-17 19:09:00,
2013-10-17 12:24:00,76.8,37.0,30.10,SW,231,2.0,2.0,24,0.00,,,0.00,weatherlink.com 1.10,2013-10-17 19:24:00,
2013-10-17 12:39:00,75.7,31.0,30.10,WSW,256,0.0,4.0,19,0.00,,,0.00,weatherlink.com 1.10,2013-10-17 19:39:00,
2013-10-17 12:54:00,76.1,35.0,30.09,West,274,2.0,3.0,22,0.00,,,0.00,weatherlink.com 1.10,2013-10-17 19:54:00,
2013-10-17 13:09:00,77.4,37.0,30.08,West,281,0.0,3.0,23,0.00,,,0.00,weatherlink.com 1.10,2013-10-17 20:09:00,
2013-10-17 13:24:00,76.6,39.0,30.07,WSW,242,0.0,4.0,26,0.00,,,0.00,weatherlink.com 1.10,2013-10-17 20:24:00,
2013-10-17 13:39:00,75.5,36.0,30.07,WSW,252,3.0,6.0,24,0.00,,,0.00,weatherlink.com 1.10,2013-10-17 20:39:00,
2013-10-17 13:54:00,76.7,36.0,30.06,West,264,3.0,4.0,23,0.00,,,0.00,weatherlink.com 1.10,2013-10-17 20:54:00,
2013-10-17 14:09:00,76.9,35.0,30.05,West,262,2.0,4.0,22,0.00,,,0.00,weatherlink.com 1.10,2013-10-17 21:09:00,
2013-10-17 14:24:00,77.2,35.0,30.05,West,265,0.0,4.0,22,0.00,,,0.00,weatherlink.com 1.10,2013-10-17 21:24:00,
2013-10-17 14:39:00,77.2,37.0,30.05,WSW,256,0.0,4.0,23,0.00,,,0.00,weatherlink.com 1.10,2013-10-17 21:39:00,
2013-10-17 14:54:00,76.9,38.0,30.05,WSW,250,1.0,5.0,25,0.00,,,0.00,weatherlink.com 1.10,2013-10-17 21:54:00,
2013-10-17 15:09:00,76.7,36.0,30.05,SW,225,0.0,4.0,23,0.00,,,0.00,weatherlink.com 1.10,2013-10-17 22:09:00,
2013-10-17 15:24:00,76.3,35.0,30.04,WSW,255,2.0,5.0,22,0.00,,,0.00,weatherlink.com 1.10,2013-10-17 22:24:00,
2013-10-17 15:39:00,77.3,36.0,30.04,WSW,256,0.0,3.0,22,0.00,,,0.00,weatherlink.com 1.10,2013-10-17 22:39:00,
2013-10-17 15:55:00,77.5,35.0,30.04,WSW,252,0.0,3.0,21,0.00,,,0.00,weatherlink.com 1.10,2013-10-17 22:55:00,
2013-10-17 16:10:00,77.6,37.0,30.04,WSW,258,0.0,2.0,23,0.00,,,0.00,weatherlink.com 1.10,2013-10-17 23:10:00,
2013-10-17 16:25:00,77.7,36.0,30.03,West,262,0.0,3.0,22,0.00,,,0.00,weatherlink.com 1.10,2013-10-17 23:25:00,
2013-10-17 16:40:00,76.3,35.0,30.03,East,88,0.0,3.0,22,0.00,,,0.00,weatherlink.com 1.10,2013-10-17 23:40:00,
2013-10-17 16:55:00,76.4,35.0,30.03,West,266,0.0,2.0,22,0.00,,,0.00,weatherlink.com 1.10,2013-10-17 23:55:00,
2013-10-17 17:10:00,75.3,35.0,30.03,West,277,0.0,2.0,23,0.00,,,0.00,weatherlink.com 1.10,2013-10-18 00:10:00,
2013-10-17 17:25:00,75.0,36.0,30.03,ENE,66,1.0,3.0,24,0.00,,,0.00,weatherlink.com 1.10,2013-10-18 00:25:00,
2013-10-17 17:40:00,74.8,36.0,30.03,WSW,247,0.0,2.0,24,0.00,,,0.00,weatherlink.com 1.10,2013-10-18 00:40:00,
2013-10-17 17:55:00,73.3,35.0,30.03,West,260,0.0,0.0,25,0.00,,,0.00,weatherlink.com 1.10,2013-10-18 00:55:00,
2013-10-17 18:10:00,69.8,34.0,30.03,SW,233,1.0,2.0,27,0.00,,,0.00,weatherlink.com 1.10,2013-10-18 01:10:00,
2013-10-17 18:25:00,67.1,35.0,30.03,WSW,245,0.0,1.0,30,0.00,,,0.00,weatherlink.com 1.10,2013-10-18 01:25:00,
2013-10-17 18:40:00,66.2,34.0,30.03,WSW,242,0.0,0.0,30,0.00,,,0.00,weatherlink.com 1.10,2013-10-18 01:40:00,
2013-10-17 18:55:00,65.6,33.0,30.04,WSW,242,0.0,0.0,30,0.00,,,0.00,weatherlink.com 1.10,2013-10-18 01:55:00,
2013-10-17 19:10:00,64.9,33.0,30.04,WSW,242,0.0,0.0,30,0.00,,,0.00,weatherlink.com 1.10,2013-10-18 02:10:00,
2013-10-17 19:25:00,63.9,32.0,30.04,WSW,242,0.0,0.0,30,0.00,,,0.00,weatherlink.com 1.10,2013-10-18 02:25:00,
2013-10-17 19:40:00,63.4,32.0,30.04,WSW,242,0.0,0.0,31,0.00,,,0.00,weatherlink.com 1.10,2013-10-18 02:40:00,
2013-10-17 19:55:00,62.5,33.0,30.04,WSW,242,0.0,0.0,33,0.00,,,0.00,weatherlink.com 1.10,2013-10-18 02:55:00,
2013-10-17 20:10:00,62.3,33.0,30.04,WSW,241,0.0,0.0,33,0.00,,,0.00,weatherlink.com 1.10,2013-10-18 03:10:00,
2013-10-17 20:25:00,62.0,32.0,30.04,WSW,242,0.0,0.0,33,0.00,,,0.00,weatherlink.com 1.10,2013-10-18 03:25:00,
2013-10-17 20:40:00,60.7,33.0,30.04,WSW,242,0.0,0.0,35,0.00,,,0.00,weatherlink.com 1.10,2013-10-18 03:40:00,
2013-10-17 20:55:00,59.9,33.0,30.04,WSW,242,0.0,0.0,36,0.00,,,0.00,weatherlink.com 1.10,2013-10-18 03:55:00,
2013-10-17 21:10:00,59.9,33.0,30.04,WSW,242,0.0,0.0,37,0.00,,,0.00,weatherlink.com 1.10,2013-10-18 04:10:00,
2013-10-17 21:25:00,58.5,33.0,30.04,WSW,242,0.0,0.0,39,0.00,,,0.00,weatherlink.com 1.10,2013-10-18 04:25:00,
2013-10-17 21:40:00,58.5,33.0,30.04,WSW,242,0.0,0.0,39,0.00,,,0.00,weatherlink.com 1.10,2013-10-18 04:40:00,
2013-10-17 21:55:00,58.7,34.0,30.04,WSW,242,0.0,0.0,40,0.00,,,0.00,weatherlink.com 1.10,2013-10-18 04:55:00,
2013-10-17 22:10:00,58.2,34.0,30.04,WSW,245,0.0,0.0,40,0.00,,,0.00,weatherlink.com 1.10,2013-10-18 05:10:00,
2013-10-17 22:25:00,58.0,34.0,30.04,SE,135,0.0,0.0,41,0.00,,,0.00,weatherlink.com 1.10,2013-10-18 05:25:00,
2013-10-17 22:40:00,58.1,34.0,30.05,WSW,238,0.0,0.0,41,0.00,,,0.00,weatherlink.com 1.10,2013-10-18 05:40:00,
2013-10-17 22:55:00,57.9,34.0,30.05,East,96,0.0,0.0,41,0.00,,,0.00,weatherlink.com 1.10,2013-10-18 05:55:00,
2013-10-17 23:10:00,57.0,34.0,30.05,East,96,0.0,0.0,42,0.00,,,0.00,weatherlink.com 1.10,2013-10-18 06:10:00,
2013-10-17 23:25:00,57.0,34.0,30.04,SW,225,0.0,0.0,42,0.00,,,0.00,weatherlink.com 1.10,2013-10-18 06:25:00,
2013-10-17 23:40:00,55.9,33.0,30.04,SW,224,0.0,0.0,43,0.00,,,0.00,weatherlink.com 1.10,2013-10-18 06:40:00,
2013-10-17 23:55:00,55.5,34.0,30.04,SW,225,0.0,0.0,44,0.00,,,0.00,weatherlink.com 1.10,2013-10-18 06:55:00,